Time;durP1;ratioP1;P1;durP2;ratioP2;P2;SDS_P1;SDS_P2;PMS_P1;PMS_P2;Temp;Humidity;BMP_temperature;BMP_pressure;BME280_temperature;BME280_humidity;BME280_pressure;Samples;Min_cycle;Max_cycle;Signal;HPM_P1;HPM_P2
2022/12/16 00:01:57;;;;;;;19.50;15.13;;;;;;;;;;5124849;28;20051;-57
2022/12/16 00:04:39;;;;;;;25.70;17.23;;;;;;;;;;5109380;28;20565;-52
2022/12/16 00:07:08;;;;;;;20.20;18.07;;;;;;;;;;5128759;28;20107;-55
2022/12/16 00:09:59;;;;;;;16.47;13.50;;;;;;;;;;5127819;28;20053;-57
2022/12/16 00:12:33;;;;;;;24.33;14.45;;;;;;;;;;5125521;28;20031;-52
2022/12/16 00:15:19;;;;;;;17.77;16.03;;;;;;;;;;5085698;28;20114;-55
2022/12/16 00:18:00;;;;;;;13.30;11.93;;;;;;;;;;5084179;28;20112;-56
2022/12/16 00:23:52;;;;;;;14.60;11.77;;;;;;;;;;5085457;28;20086;-58
2022/12/16 00:26:39;;;;;;;23.80;16.60;;;;;;;;;;5077837;28;20461;-55
2022/12/16 00:29:20;;;;;;;18.63;11.90;;;;;;;;;;5085171;28;20552;-57
2022/12/16 00:32:11;;;;;;;19.23;14.98;;;;;;;;;;5068602;28;20052;-53
2022/12/16 00:35:08;;;;;;;26.40;14.50;;;;;;;;;;5084790;28;20040;-57
2022/12/16 00:37:43;;;;;;;12.50;11.30;;;;;;;;;;5084861;28;20037;-54
2022/12/16 00:40:25;;;;;;;;;;;;;;;;;;;;;
2022/12/16 00:42:55;;;;;;;12.30;11.00;;;;;;;;;;5079440;28;20434;-53
2022/12/16 00:45:43;;;;;;;21.17;17.03;;;;;;;;;;5094937;28;20042;-51
2022/12/16 00:48:24;;;;;;;23.90;15.73;;;;;;;;;;5107270;28;20039;-53
2022/12/16 00:53:54;;;;;;;19.23;13.23;;;;;;;;;;5112655;28;20052;-52
2022/12/16 00:56:44;;;;;;;18.57;13.50;;;;;;;;;;5127512;28;20031;-52
2022/12/16 01:02:23;;;;;;;17.67;13.70;;;;;;;;;;5126930;28;20061;-53
2022/12/16 01:05:07;;;;;;;17.67;15.83;;;;;;;;;;5127409;28;20080;-52
2022/12/16 01:07:55;;;;;;;19.97;17.57;;;;;;;;;;5127856;28;20024;-53
2022/12/16 01:14:08;;;;;;;23.93;15.23;;;;;;;;;;5083024;28;20039;-52
2022/12/16 01:16:47;;;;;;;22.13;16.97;;;;;;;;;;5094169;28;20024;-56
2022/12/16 01:19:26;;;;;;;12.63;11.23;;;;;;;;;;5128354;28;20031;-52
2022/12/16 01:22:27;;;;;;;17.10;15.30;;;;;;;;;;5128611;28;20027;-51
2022/12/16 01:25:17;;;;;;;15.82;14.20;;;;;;;;;;5128631;28;20049;-56
2022/12/16 01:28:01;;;;;;;19.85;16.05;;;;;;;;;;5128480;28;20019;-50
2022/12/16 01:42:42;;;;;;;;;;;;;;;;;;;;;
2022/12/16 01:45:34;;;;;;;16.47;13.80;;;;;;;;;;5127636;28;20070;-57
2022/12/16 01:48:17;;;;;;;22.07;14.17;;;;;;;;;;5128404;28;20026;-52
2022/12/16 01:51:44;;;;;;;;;;;;;;;;;;;;;
2022/12/16 01:54:38;;;;;;;14.95;11.93;;;;;;;;;;5116576;28;20042;-51
2022/12/16 01:57:23;;;;;;;13.53;10.47;;;;;;;;;;5115942;28;20041;-50
2022/12/16 02:00:11;;;;;;;15.37;11.40;;;;;;;;;;5126801;28;20054;-52
2022/12/16 02:13:03;;;;;;;23.70;14.17;;;;;;;;;;5044190;28;20046;-54
2022/12/16 02:15:41;;;;;;;12.77;11.48;;;;;;;;;;5041908;28;20565;-52
2022/12/16 02:18:52;;;;;;;;;;;;;;;;;;;;;
2022/12/16 02:24:55;;;;;;;14.83;12.80;;;;;;;;;;5123198;28;20040;-52
2022/12/16 02:31:00;;;;;;;19.40;14.20;;;;;;;;;;5084580;28;20055;-51
2022/12/16 02:36:53;;;;;;;19.70;10.63;;;;;;;;;;5093682;28;20048;-53
2022/12/16 02:39:42;;;;;;;22.33;16.10;;;;;;;;;;5105991;28;20016;-54
2022/12/16 02:42:44;;;;;;;17.83;13.07;;;;;;;;;;5105534;28;20027;-50
2022/12/16 02:48:29;;;;;;;19.70;15.70;;;;;;;;;;5104303;28;20031;-54
2022/12/16 02:51:02;;;;;;;17.63;15.90;;;;;;;;;;5104810;28;20020;-53
2022/12/16 02:53:59;;;;;;;17.80;15.70;;;;;;;;;;5105134;28;20028;-51
2022/12/16 02:56:53;;;;;;;18.83;16.83;;;;;;;;;;5104847;28;20046;-54
2022/12/16 03:02:31;;;;;;;16.27;14.20;;;;;;;;;;5104979;28;20162;-50
2022/12/16 03:05:30;;;;;;;15.53;13.67;;;;;;;;;;5105438;28;20036;-54
2022/12/16 03:08:32;;;;;;;19.83;12.10;;;;;;;;;;5105961;28;20107;-52
2022/12/16 03:11:03;;;;;;;16.17;14.10;;;;;;;;;;5009637;28;20030;-54
2022/12/16 03:13:59;;;;;;;15.23;11.20;;;;;;;;;;5026134;28;20112;-51
2022/12/16 03:16:54;;;;;;;17.77;12.33;;;;;;;;;;5026065;28;20029;-53
2022/12/16 03:19:44;;;;;;;16.27;13.97;;;;;;;;;;5023182;28;20049;-53
2022/12/16 03:22:39;;;;;;;19.33;16.02;;;;;;;;;;5020938;28;20417;-50
2022/12/16 03:25:25;;;;;;;16.70;14.03;;;;;;;;;;5107255;28;20111;-50
2022/12/16 03:31:37;;;;;;;;;;;;;;;;;;;;;
2022/12/16 03:34:25;;;;;;;10.65;9.70;;;;;;;;;;5127891;28;20051;-50
2022/12/16 03:37:22;;;;;;;15.57;10.37;;;;;;;;;;5110315;28;20053;-50
2022/12/16 03:42:52;;;;;;;13.53;11.80;;;;;;;;;;5126945;28;20061;-50
2022/12/16 03:45:29;;;;;;;22.63;14.87;;;;;;;;;;5119313;28;20028;-50
2022/12/16 03:48:05;;;;;;;15.90;14.23;;;;;;;;;;5068314;28;20032;-50
2022/12/16 03:51:12;;;;;;;22.47;14.00;;;;;;;;;;5083987;28;20081;-50
2022/12/16 03:53:45;;;;;;;16.00;14.23;;;;;;;;;;5064527;28;20040;-51
2022/12/16 03:56:23;;;;;;;20.03;13.50;;;;;;;;;;5060194;28;20096;-53
2022/12/16 04:04:56;;;;;;;19.93;14.30;;;;;;;;;;5007034;28;20053;-50
2022/12/16 04:07:35;;;;;;;13.17;11.10;;;;;;;;;;5021194;28;20479;-51
2022/12/16 04:31:25;;;;;;;16.90;14.10;;;;;;;;;;5066212;28;20044;-51
2022/12/16 04:34:32;;;;;;;21.70;12.60;;;;;;;;;;5096202;28;20059;-51
